NCAR-RAP Real-Time Weather Data

Output produced by METARs form (06 May 2021  16:54 UTC)
found at http://weather.rap.ucar.edu/surface/
 
KHGR 061553Z 29008KT 10SM SCT046 13/02 A3006 RMK AO2 SLP190 T01330022
KHGR 061453Z VRB06KT 10SM SCT043 13/02 A3008 RMK AO2 SLP195 T01280022 58000
KHGR 061353Z 35006KT 10SM FEW037 12/02 A3009 RMK AO2 SLP200 T01220022
KHGR 061253Z 34008G18KT 10SM SCT035 11/02 A3008 RMK AO2 SLP197 T01110022
KHGR 061153Z 31011KT 10SM FEW050 10/02 A3008 RMK AO2 SLP195 70026 T01000022 10100 20072 51013
KHGR 061053Z 27006KT 10SM FEW050 08/02 A3007 RMK AO2 SLP193 T00780022
KHGR 060953Z AUTO 30008KT 10SM BKN048 08/02 A3005 RMK AO2 SLP187 T00780017
KHGR 060853Z AUTO 30006KT 10SM SCT050 07/01 A3004 RMK AO2 SLP182 T00720011 53007
KHGR 060753Z AUTO 30006KT 10SM OVC049 08/01 A3002 RMK AO2 SLP174 T00830011
KHGR 060653Z AUTO 30012KT 10SM OVC048 09/01 A3001 RMK AO2 SLP171 T00940006
KHGR 060553Z AUTO 32012G19KT 10SM OVC048 10/01 A3001 RMK AO2 SLP172 T01000011 10139 20094 50009
KHGR 060453Z AUTO 32010KT 10SM BKN060 10/02 A3002 RMK AO2 SLP174 T01000017 402170100
KHGR 060353Z AUTO 32010G21KT 10SM BKN050 11/02 A3000 RMK AO2 SLP167 T01110017
KHGR 060253Z AUTO 32011KT 10SM OVC050 12/03 A2999 RMK AO2 SLP163 T01220033 51025
KHGR 060153Z 32007KT 10SM OVC055 13/04 A2997 RMK AO2 SLP158 T01280039